createdAt,value
2018-03-09T00:06:32.256Z,2.30
2018-03-09T00:16:33.773Z,2.30
2018-03-09T00:26:35.301Z,3.23
2018-03-09T00:36:36.841Z,3.00
2018-03-09T00:46:38.411Z,3.63
2018-03-09T00:56:39.924Z,2.90
2018-03-09T01:06:42.187Z,3.20
2018-03-09T01:16:43.723Z,3.57
2018-03-09T01:26:45.415Z,3.13
2018-03-09T01:36:46.884Z,3.73
2018-03-09T01:46:48.526Z,3.20
2018-03-09T01:56:50.051Z,4.10
2018-03-09T02:06:52.305Z,4.10
2018-03-09T02:16:53.854Z,4.03
2018-03-09T02:26:56.142Z,3.73
2018-03-09T02:36:57.674Z,4.20
2018-03-09T02:46:59.979Z,4.10
2018-03-09T02:57:01.472Z,4.10
2018-03-09T03:07:10.106Z,5.00
2018-03-09T03:17:11.848Z,4.40
2018-03-09T03:27:13.372Z,4.60
2018-03-09T03:37:15.615Z,6.30
2018-03-09T03:47:17.237Z,5.40
2018-03-09T03:57:18.801Z,6.23
2018-03-09T04:07:20.357Z,7.23
2018-03-09T04:17:21.853Z,6.50
2018-03-09T04:27:23.375Z,6.63
2018-03-09T04:37:25.640Z,6.33
2018-03-09T04:47:27.170Z,6.37
2018-03-09T04:57:28.704Z,6.33
2018-03-09T05:07:31.001Z,6.83
2018-03-09T05:17:32.643Z,7.90
2018-03-09T05:27:34.139Z,6.77
2018-03-09T05:37:35.732Z,7.90
2018-03-09T05:47:37.253Z,7.93
2018-03-09T05:57:38.781Z,7.30
2018-03-09T06:07:40.299Z,9.00
2018-03-09T06:17:41.837Z,9.87
2018-03-09T06:27:43.423Z,10.20
2018-03-09T06:37:45.105Z,11.07
2018-03-09T06:47:46.666Z,11.80
2018-03-09T06:57:48.250Z,11.00
2018-03-09T07:07:49.840Z,10.77
2018-03-09T07:17:51.376Z,13.73
2018-03-09T07:27:52.928Z,11.60
2018-03-09T07:37:54.472Z,11.97
2018-03-09T07:47:56.043Z,13.43
2018-03-09T07:57:57.566Z,12.03
2018-03-09T08:07:59.202Z,11.50
2018-03-09T08:18:00.697Z,11.40
2018-03-09T08:28:12.588Z,12.30
2018-03-09T08:38:22.429Z,13.67
2018-03-09T08:48:24.153Z,14.80
2018-03-09T08:58:29.935Z,14.30
2018-03-09T09:08:38.218Z,14.27
2018-03-09T09:18:45.781Z,14.50
2018-03-09T09:28:51.990Z,14.77
2018-03-09T09:38:59.674Z,14.07
2018-03-09T09:49:01.301Z,14.90
2018-03-09T09:59:03.593Z,15.70
2018-03-09T10:09:05.170Z,15.80
2018-03-09T10:19:06.710Z,15.87
2018-03-09T10:29:08.410Z,14.53
2018-03-09T10:39:09.974Z,14.53
2018-03-09T10:49:11.558Z,15.70
2018-03-09T10:59:13.110Z,14.10
2018-03-09T11:09:14.655Z,13.73
2018-03-09T11:19:16.285Z,14.70
2018-03-09T11:29:17.829Z,13.07
2018-03-09T11:39:20.169Z,13.40
2018-03-09T11:49:21.749Z,13.63
2018-03-09T11:59:24.061Z,14.27
2018-03-09T12:09:26.438Z,15.13
2018-03-09T12:19:27.882Z,14.30
2018-03-09T12:29:30.157Z,15.40
2018-03-09T12:39:31.732Z,13.10
2018-03-09T12:49:33.250Z,18.70
2018-03-09T12:59:34.817Z,18.37
2018-03-09T13:09:36.352Z,20.20
2018-03-09T13:19:37.937Z,20.10
2018-03-09T13:29:39.490Z,17.77
2018-03-09T13:39:41.019Z,16.70
2018-03-09T13:49:42.566Z,16.50
2018-03-09T13:59:44.101Z,16.43
2018-03-09T14:09:45.714Z,19.13
2018-03-09T14:19:47.282Z,18.77
2018-03-09T14:29:48.802Z,18.90
2018-03-09T14:39:51.061Z,19.70
2018-03-09T14:49:52.665Z,20.37
2018-03-09T14:59:54.413Z,20.57
2018-03-09T15:09:56.669Z,22.77
2018-03-09T15:19:58.219Z,22.50
2018-03-09T15:29:59.793Z,26.27
2018-03-09T15:40:01.333Z,28.30
2018-03-09T15:50:03.658Z,30.20
2018-03-09T16:00:05.942Z,31.07
2018-03-09T16:10:07.478Z,27.53
2018-03-09T16:20:10.018Z,30.73
2018-03-09T16:30:11.560Z,31.00
2018-03-09T16:40:13.133Z,32.13
2018-03-09T16:50:14.692Z,33.70
2018-03-09T17:00:17.009Z,33.93
2018-03-09T17:10:19.525Z,36.50
2018-03-09T17:20:21.067Z,36.23
2018-03-09T17:30:22.731Z,37.80
2018-03-09T17:40:25.030Z,36.13
2018-03-09T17:50:26.613Z,37.40
2018-03-09T18:00:28.128Z,36.33
2018-03-09T18:10:29.785Z,37.67
2018-03-09T18:20:31.578Z,35.73
2018-03-09T18:30:33.259Z,39.70
2018-03-09T18:40:35.627Z,37.07
2018-03-09T18:50:43.396Z,42.03
2018-03-09T19:00:45.074Z,40.60
2018-03-09T19:21:32.068Z,38.67
2018-03-09T19:31:45.303Z,38.90
2018-03-09T19:41:54.226Z,37.93
2018-03-09T19:51:55.822Z,36.07
2018-03-09T20:01:57.371Z,40.03
2018-03-09T20:11:58.994Z,38.77
2018-03-09T20:22:00.571Z,38.93
2018-03-09T20:32:02.230Z,36.67
2018-03-09T20:42:04.537Z,38.10
2018-03-09T20:52:06.893Z,34.83
2018-03-09T21:02:08.557Z,38.67
2018-03-09T21:12:10.866Z,36.87
2018-03-09T21:22:13.244Z,38.83
2018-03-09T21:32:14.990Z,34.53
2018-03-09T21:42:17.365Z,33.17
2018-03-09T21:52:18.949Z,39.20
2018-03-09T22:02:20.569Z,35.30
2018-03-09T22:12:22.197Z,34.20
2018-03-09T22:22:23.893Z,37.90
2018-03-09T22:32:25.529Z,40.13
2018-03-09T22:42:27.798Z,39.13
2018-03-09T22:52:29.334Z,44.57
2018-03-09T23:02:31.683Z,33.87
2018-03-09T23:12:33.577Z,38.30
2018-03-09T23:22:35.160Z,39.00
2018-03-09T23:32:37.502Z,35.53
2018-03-09T23:42:39.061Z,37.20
2018-03-09T23:52:40.585Z,38.13
